Time;durP1;ratioP1;P1;durP2;ratioP2;P2;SDS_P1;SDS_P2;PMS_P1;PMS_P2;Temp;Humidity;BMP_temperature;BMP_pressure;BME280_temperature;BME280_humidity;BME280_pressure;Samples;Min_cycle;Max_cycle;Signal;HPM_P1;HPM_P2
2022/04/28 00:00:24;;;;;;;22.23;15.37;;;9.40;99.90;;;;;;5049965;28;21074;-77
2022/04/28 00:02:51;;;;;;;20.50;14.93;;;9.40;99.90;;;;;;5067958;28;20525;-77
2022/04/28 00:05:18;;;;;;;21.90;15.10;;;9.30;99.90;;;;;;5069177;28;20517;-78
2022/04/28 00:07:46;;;;;;;27.73;15.73;;;9.30;99.90;;;;;;5070521;28;20452;-77
2022/04/28 00:10:14;;;;;;;19.77;14.37;;;9.30;99.90;;;;;;5054703;28;21004;-77
2022/04/28 00:12:41;;;;;;;23.20;16.57;;;9.30;99.90;;;;;;5050948;28;20514;-77
2022/04/28 00:15:08;;;;;;;25.57;16.67;;;9.20;99.90;;;;;;5049300;28;20480;-78
2022/04/28 00:17:36;;;;;;;26.63;16.97;;;9.20;99.90;;;;;;5055846;28;20963;-78
2022/04/28 00:20:03;;;;;;;23.40;16.40;;;9.20;99.90;;;;;;5066730;28;20526;-77
2022/04/28 00:22:30;;;;;;;24.93;17.00;;;9.20;99.90;;;;;;5053846;28;20452;-78
2022/04/28 00:24:56;;;;;;;25.50;16.43;;;9.20;99.90;;;;;;5058413;28;20485;-78
2022/04/28 00:27:23;;;;;;;24.73;16.80;;;9.20;99.90;;;;;;5069631;28;20501;-78
2022/04/28 00:29:50;;;;;;;27.60;17.20;;;9.20;99.90;;;;;;5072928;28;20463;-77
2022/04/28 00:32:17;;;;;;;26.23;17.43;;;9.10;99.90;;;;;;5073229;28;20460;-78
2022/04/28 00:34:46;;;;;;;28.70;18.33;;;9.20;99.90;;;;;;5071183;28;20479;-78
2022/04/28 00:37:13;;;;;;;26.47;17.00;;;9.20;99.90;;;;;;5046144;28;20966;-79
2022/04/28 00:39:40;;;;;;;31.27;18.37;;;9.20;99.90;;;;;;5072444;28;20495;-78
2022/04/28 00:42:11;;;;;;;27.40;18.07;;;9.10;99.90;;;;;;5067519;28;20502;-77
2022/04/28 00:44:38;;;;;;;25.73;17.60;;;9.20;99.90;;;;;;5052796;28;20513;-78
2022/04/28 00:47:05;;;;;;;25.83;18.20;;;9.10;99.90;;;;;;5052636;28;20501;-77
2022/04/28 00:52:18;;;;;;;28.97;18.37;;;9.10;99.90;;;;;;5049691;28;20430;-79
2022/04/28 00:54:47;;;;;;;24.73;17.70;;;9.10;99.90;;;;;;5072739;28;20518;-77
2022/04/28 00:57:15;;;;;;;30.60;19.83;;;9.10;99.90;;;;;;5072204;28;20459;-77
2022/04/28 00:59:41;;;;;;;27.03;18.00;;;9.00;99.90;;;;;;5071264;28;20475;-78
2022/04/28 01:02:09;;;;;;;27.17;18.27;;;9.00;99.90;;;;;;5072490;28;20509;-77
2022/04/28 01:04:37;;;;;;;32.20;19.23;;;9.00;99.90;;;;;;5054279;28;20526;-77
2022/04/28 01:07:04;;;;;;;30.73;19.53;;;9.00;99.90;;;;;;5065987;28;20465;-79
2022/04/28 01:09:36;;;;;;;31.13;20.37;;;9.00;99.90;;;;;;5071969;28;21032;-77
2022/04/28 01:12:06;;;;;;;30.47;19.83;;;8.90;99.90;;;;;;5070031;28;20474;-77
2022/04/28 01:14:32;;;;;;;30.43;20.77;;;8.90;99.90;;;;;;5053226;28;20456;-78
2022/04/28 01:16:59;;;;;;;34.03;20.80;;;8.90;99.90;;;;;;5065381;28;20483;-78
2022/04/28 01:19:26;;;;;;;30.73;20.43;;;8.90;99.90;;;;;;5068585;28;20455;-77
2022/04/28 01:21:54;;;;;;;29.23;19.70;;;8.80;99.90;;;;;;5072534;28;20513;-78
2022/04/28 01:24:20;;;;;;;34.63;21.73;;;8.80;99.90;;;;;;5059277;28;20457;-79
2022/04/28 01:26:49;;;;;;;34.00;21.10;;;8.80;99.90;;;;;;5056763;28;20456;-77
2022/04/28 01:29:16;;;;;;;31.27;20.90;;;8.70;99.90;;;;;;5064236;28;20440;-78
2022/04/28 01:31:42;;;;;;;30.17;20.83;;;8.70;99.90;;;;;;5057835;28;20460;-78
2022/04/28 01:34:09;;;;;;;32.47;20.20;;;8.70;99.90;;;;;;5068220;28;20553;-79
2022/04/28 01:36:36;;;;;;;33.30;21.13;;;8.60;99.90;;;;;;5061361;28;20480;-78
2022/04/28 01:39:06;;;;;;;34.07;21.00;;;8.60;99.90;;;;;;5052438;28;20456;-78
2022/04/28 01:41:33;;;;;;;38.57;21.47;;;8.60;99.90;;;;;;5051776;28;20468;-78
2022/04/28 01:44:01;;;;;;;38.03;21.30;;;8.60;99.90;;;;;;5052694;28;20456;-78
2022/04/28 01:46:28;;;;;;;35.03;21.07;;;8.50;99.90;;;;;;5058456;28;21000;-77
2022/04/28 01:48:55;;;;;;;32.37;20.93;;;8.50;99.90;;;;;;5052544;28;20514;-78
2022/04/28 01:56:52;;;;;;;37.07;21.60;;;8.50;99.90;;;;;;5051853;28;20487;-78
2022/04/28 01:59:18;;;;;;;33.10;22.03;;;8.40;99.90;;;;;;5051820;28;20448;-77
2022/04/28 02:01:45;;;;;;;42.20;21.40;;;8.40;99.90;;;;;;5057831;28;21025;-78
2022/04/28 02:04:11;;;;;;;34.33;22.50;;;8.40;99.90;;;;;;5070787;28;20448;-77
2022/04/28 02:06:39;;;;;;;34.90;22.50;;;8.30;99.90;;;;;;5071284;28;20653;-77
2022/04/28 02:09:07;;;;;;;30.80;20.87;;;8.30;99.90;;;;;;5061231;28;20460;-77
2022/04/28 02:11:34;;;;;;;32.90;21.57;;;8.30;99.90;;;;;;5058464;28;21108;-78
2022/04/28 02:14:01;;;;;;;32.77;20.80;;;8.30;99.90;;;;;;5071219;28;20551;-77
2022/04/28 02:16:27;;;;;;;39.80;22.17;;;8.30;99.90;;;;;;5059296;28;20476;-78
2022/04/28 02:18:54;;;;;;;34.73;21.23;;;8.30;99.90;;;;;;5051678;28;20456;-78
2022/04/28 02:21:21;;;;;;;31.33;20.43;;;8.20;99.90;;;;;;5070460;28;20472;-78
2022/04/28 02:23:48;;;;;;;43.10;23.33;;;8.20;99.90;;;;;;5054025;28;20953;-77
2022/04/28 02:26:16;;;;;;;31.50;20.87;;;8.20;99.90;;;;;;5058859;28;20448;-78
2022/04/28 02:28:42;;;;;;;37.10;20.30;;;8.20;99.90;;;;;;5055753;28;20937;-78
2022/04/28 02:31:09;;;;;;;30.27;20.27;;;8.20;99.90;;;;;;5051225;28;20468;-77
2022/04/28 02:33:35;;;;;;;32.80;21.37;;;8.20;99.90;;;;;;5050591;28;20544;-77
2022/04/28 02:36:02;;;;;;;35.57;21.63;;;8.20;99.90;;;;;;5050961;28;21000;-77
2022/04/28 02:38:29;;;;;;;34.83;21.93;;;8.20;99.90;;;;;;5051250;28;20525;-78
2022/04/28 02:40:56;;;;;;;37.53;23.43;;;8.10;99.90;;;;;;5050566;28;20476;-77
2022/04/28 02:43:24;;;;;;;37.87;21.80;;;8.10;99.90;;;;;;5051471;28;20456;-77
2022/04/28 02:45:50;;;;;;;30.77;21.30;;;8.10;99.90;;;;;;5056418;28;20501;-78
2022/04/28 02:48:17;;;;;;;32.70;21.43;;;8.10;99.90;;;;;;5070149;28;20488;-78
2022/04/28 02:50:44;;;;;;;35.23;22.87;;;8.10;99.90;;;;;;5070996;28;20467;-78
2022/04/28 02:53:10;;;;;;;34.20;22.07;;;8.00;99.90;;;;;;5070560;28;20443;-78
2022/04/28 02:55:39;;;;;;;36.57;22.90;;;8.00;99.90;;;;;;5056089;28;20483;-77
2022/04/28 02:58:06;;;;;;;36.57;22.20;;;8.00;99.90;;;;;;5067429;28;20517;-77
2022/04/28 03:00:34;;;;;;;39.30;22.70;;;8.00;99.90;;;;;;5070510;28;20525;-78
2022/04/28 03:03:01;;;;;;;39.37;22.77;;;8.00;99.90;;;;;;5070370;28;20463;-79
2022/04/28 03:05:27;;;;;;;37.50;22.70;;;8.00;99.90;;;;;;5069748;28;21036;-78
2022/04/28 03:10:51;;;;;;;37.20;23.37;;;7.90;99.90;;;;;;5008837;28;20478;-77
2022/04/28 03:13:18;;;;;;;36.70;22.30;;;7.80;99.90;;;;;;5069777;28;20465;-77
2022/04/28 03:15:47;;;;;;;43.13;21.20;;;7.80;99.90;;;;;;5055507;28;20562;-78
2022/04/28 03:18:14;;;;;;;33.07;22.80;;;7.80;99.90;;;;;;5054611;28;20836;-77
2022/04/28 03:20:41;;;;;;;34.97;21.73;;;7.80;99.90;;;;;;5061719;28;20467;-77
2022/04/28 03:23:08;;;;;;;37.30;23.80;;;7.80;99.90;;;;;;5050259;28;20475;-78
2022/04/28 03:25:34;;;;;;;41.90;23.33;;;7.80;99.90;;;;;;5050215;28;20448;-77
2022/04/28 03:28:01;;;;;;;36.30;22.77;;;7.70;99.90;;;;;;5059911;28;20598;-77
2022/04/28 03:30:28;;;;;;;37.33;23.20;;;7.70;99.90;;;;;;5055057;28;20471;-77
2022/04/28 03:32:56;;;;;;;44.73;23.03;;;7.70;99.90;;;;;;5070273;28;20940;-78
2022/04/28 03:35:23;;;;;;;37.63;22.60;;;7.70;99.90;;;;;;5063326;28;21003;-78
2022/04/28 03:37:49;;;;;;;34.57;22.47;;;7.70;99.90;;;;;;5049339;28;20506;-77
2022/04/28 03:40:17;;;;;;;31.53;21.57;;;7.70;99.90;;;;;;5069635;28;20471;-77
2022/04/28 03:42:44;;;;;;;44.37;21.73;;;7.60;99.90;;;;;;5068880;28;20447;-77
2022/04/28 03:45:11;;;;;;;40.37;23.13;;;7.60;99.90;;;;;;5068037;28;20443;-77
2022/04/28 03:47:38;;;;;;;36.30;22.43;;;7.60;99.90;;;;;;5067753;28;20494;-77
2022/04/28 03:50:08;;;;;;;37.97;23.20;;;7.60;99.90;;;;;;5057750;28;20522;-78
2022/04/28 03:52:35;;;;;;;40.37;23.43;;;7.60;99.90;;;;;;5050286;28;20499;-77
2022/04/28 03:55:02;;;;;;;37.83;23.70;;;7.60;99.90;;;;;;5052311;28;20879;-77
2022/04/28 03:57:28;;;;;;;41.13;24.13;;;7.60;99.90;;;;;;5054223;28;20510;-77
2022/04/28 03:59:56;;;;;;;35.97;22.40;;;7.50;99.90;;;;;;5060449;28;20483;-77
2022/04/28 04:02:23;;;;;;;44.13;24.43;;;7.50;99.90;;;;;;5068541;28;20456;-78
2022/04/28 04:04:50;;;;;;;39.53;22.43;;;7.50;99.90;;;;;;5070151;28;20959;-77
2022/04/28 04:07:18;;;;;;;41.33;24.70;;;7.50;99.90;;;;;;5073521;28;20491;-78
2022/04/28 04:09:44;;;;;;;47.97;25.73;;;7.50;99.90;;;;;;5073370;28;20475;-77
2022/04/28 04:12:11;;;;;;;37.77;23.40;;;7.40;99.90;;;;;;5073488;28;20872;-77
2022/04/28 04:14:38;;;;;;;41.90;24.43;;;7.40;99.90;;;;;;5072728;28;20463;-77
2022/04/28 04:17:05;;;;;;;41.60;24.87;;;7.40;99.90;;;;;;5068820;28;20480;-77
2022/04/28 04:19:31;;;;;;;38.10;24.60;;;7.40;99.90;;;;;;5058997;28;20448;-78
2022/04/28 04:21:58;;;;;;;37.90;24.27;;;7.40;99.90;;;;;;5073509;28;20459;-77
2022/04/28 04:24:27;;;;;;;40.10;23.60;;;7.40;99.90;;;;;;5068495;28;20467;-77
2022/04/28 04:26:54;;;;;;;41.13;23.73;;;7.40;99.90;;;;;;5056726;28;20940;-77
2022/04/28 04:29:20;;;;;;;44.37;24.00;;;7.40;99.90;;;;;;5064463;28;20581;-77
2022/04/28 04:34:31;;;;;;;38.00;25.30;;;7.50;99.90;;;;;;5052831;28;20469;-77
2022/04/28 04:36:58;;;;;;;42.03;24.47;;;7.50;99.90;;;;;;5069408;28;20533;-77
2022/04/28 04:39:24;;;;;;;40.73;25.60;;;7.40;99.90;;;;;;5073371;28;20520;-78
2022/04/28 04:41:52;;;;;;;36.43;24.17;;;7.50;99.90;;;;;;5072926;28;20451;-77
2022/04/28 04:44:19;;;;;;;43.13;23.00;;;7.50;99.90;;;;;;5068538;28;20456;-78
2022/04/28 04:46:45;;;;;;;38.57;24.20;;;7.50;99.90;;;;;;5053019;28;20530;-76
2022/04/28 04:49:12;;;;;;;42.07;26.10;;;7.50;99.90;;;;;;5053628;28;20934;-78
2022/04/28 04:51:39;;;;;;;44.90;24.30;;;7.50;99.90;;;;;;5059330;28;20522;-78
2022/04/28 04:54:05;;;;;;;37.00;22.77;;;7.50;99.90;;;;;;5052884;28;20460;-79
2022/04/28 04:56:33;;;;;;;41.63;24.17;;;7.50;99.90;;;;;;5053313;28;20502;-78
2022/04/28 04:59:01;;;;;;;40.13;23.80;;;7.60;99.90;;;;;;5053128;28;20483;-80
2022/04/28 05:01:28;;;;;;;40.87;24.53;;;7.60;99.90;;;;;;5060758;28;20476;-79
2022/04/28 05:03:54;;;;;;;37.40;23.60;;;7.70;99.90;;;;;;5072599;28;20508;-78
2022/04/28 05:06:21;;;;;;;43.27;24.93;;;7.70;99.90;;;;;;5067132;28;20447;-79
2022/04/28 05:08:48;;;;;;;42.23;24.77;;;7.70;99.90;;;;;;5053196;28;20453;-79
2022/04/28 05:11:14;;;;;;;39.80;24.90;;;7.80;99.90;;;;;;5052854;28;20898;-80
2022/04/28 05:13:41;;;;;;;40.37;23.20;;;7.90;99.90;;;;;;5058150;28;20456;-79
2022/04/28 05:16:09;;;;;;;41.73;26.27;;;7.90;99.90;;;;;;5052661;28;20877;-78
2022/04/28 05:18:36;;;;;;;43.73;26.50;;;8.00;99.90;;;;;;5058190;28;20882;-79
2022/04/28 05:21:03;;;;;;;42.40;25.10;;;8.10;99.90;;;;;;5072093;28;20529;-77
2022/04/28 05:23:30;;;;;;;42.77;24.70;;;8.20;99.90;;;;;;5067157;28;20519;-78
2022/04/28 05:25:57;;;;;;;37.93;23.30;;;8.30;99.90;;;;;;5052335;28;20887;-78
2022/04/28 05:28:26;;;;;;;43.27;24.70;;;8.40;99.90;;;;;;5071440;28;20535;-80
2022/04/28 05:30:55;;;;;;;42.20;25.50;;;8.60;99.90;;;;;;5065060;28;20552;-78
2022/04/28 05:33:23;;;;;;;37.40;23.67;;;8.70;99.90;;;;;;5051103;28;20475;-79
2022/04/28 05:35:50;;;;;;;31.87;21.30;;;8.80;99.90;;;;;;5048853;28;20560;-78
2022/04/28 05:38:17;;;;;;;37.40;24.80;;;8.90;99.90;;;;;;5066738;28;20491;-79
2022/04/28 05:40:43;;;;;;;40.10;22.60;;;9.00;99.90;;;;;;5071898;28;21057;-78
2022/04/28 05:45:56;;;;;;;35.20;22.23;;;9.40;99.90;;;;;;5053161;28;20486;-80
2022/04/28 05:48:24;;;;;;;30.73;20.40;;;9.80;99.90;;;;;;5063373;28;20923;-79
2022/04/28 05:50:50;;;;;;;36.17;22.47;;;10.00;99.90;;;;;;5071714;28;20475;-78
2022/04/28 05:53:17;;;;;;;30.30;20.60;;;10.30;99.90;;;;;;5071137;28;20452;-80
2022/04/28 05:55:45;;;;;;;34.43;21.20;;;10.50;99.90;;;;;;5071806;28;20451;-78
2022/04/28 05:58:12;;;;;;;30.73;20.40;;;10.70;99.90;;;;;;5071547;28;20534;-79
2022/04/28 06:00:39;;;;;;;34.20;22.27;;;10.90;99.90;;;;;;5065521;28;20483;-81
2022/04/28 06:03:06;;;;;;;29.73;20.10;;;11.10;99.90;;;;;;5056224;28;20460;-81
2022/04/28 06:05:34;;;;;;;33.80;22.00;;;11.10;99.90;;;;;;5070865;28;20455;-81
2022/04/28 06:08:00;;;;;;;31.63;20.10;;;11.30;99.90;;;;;;5077055;28;20513;-81
2022/04/28 06:10:27;;;;;;;30.10;20.57;;;11.50;99.90;;;;;;5076678;28;20475;-81
2022/04/28 06:12:54;;;;;;;29.60;19.87;;;11.60;99.90;;;;;;5075688;28;20489;-81
2022/04/28 06:15:20;;;;;;;34.33;21.83;;;11.70;99.90;;;;;;5059228;28;20533;-80
2022/04/28 06:17:47;;;;;;;29.73;20.80;;;11.80;99.90;;;;;;5055953;28;20484;-82
2022/04/28 06:20:14;;;;;;;32.97;20.97;;;11.90;99.90;;;;;;5065683;28;20494;-81
2022/04/28 06:22:42;;;;;;;34.53;21.33;;;11.90;99.90;;;;;;5076717;28;20684;-81
2022/04/28 06:25:09;;;;;;;33.87;20.37;;;12.00;99.90;;;;;;5076073;28;20451;-81
2022/04/28 06:27:36;;;;;;;29.70;20.30;;;12.20;99.90;;;;;;5073082;28;20813;-81
2022/04/28 06:30:03;;;;;;;37.00;20.13;;;12.30;99.90;;;;;;5055430;28;20480;-81
2022/04/28 06:32:30;;;;;;;33.67;21.07;;;12.40;99.90;;;;;;5060867;28;20505;-81
2022/04/28 06:34:57;;;;;;;31.20;21.40;;;12.50;99.90;;;;;;5075708;28;20497;-81
2022/04/28 06:37:24;;;;;;;26.97;20.27;;;12.60;99.90;;;;;;5076133;28;20904;-81
2022/04/28 06:39:52;;;;;;;28.27;20.47;;;12.80;99.90;;;;;;5075404;28;20979;-82
2022/04/28 06:42:18;;;;;;;38.30;21.77;;;12.90;99.90;;;;;;5075738;28;20482;-82
2022/04/28 06:44:45;;;;;;;26.30;19.30;;;13.00;99.90;;;;;;5061080;28;20453;-82
2022/04/28 06:47:12;;;;;;;26.63;20.03;;;13.20;99.90;;;;;;5055166;28;20456;-79
2022/04/28 06:49:39;;;;;;;29.23;19.43;;;13.30;99.90;;;;;;5054032;28;20495;-80
2022/04/28 06:52:06;;;;;;;33.20;20.13;;;13.30;99.90;;;;;;5055946;28;20448;-81
2022/04/28 06:54:33;;;;;;;28.73;20.00;;;13.40;99.90;;;;;;5053984;28;20818;-81
2022/04/28 06:57:01;;;;;;;27.07;18.57;;;13.40;99.90;;;;;;5054837;28;21000;-81
2022/04/28 06:59:27;;;;;;;30.57;19.50;;;13.50;99.90;;;;;;5058914;28;20452;-82
2022/04/28 07:01:54;;;;;;;35.07;22.33;;;13.70;99.90;;;;;;5056438;28;20482;-79
2022/04/28 07:04:21;;;;;;;31.77;19.20;;;13.70;99.90;;;;;;5054922;28;20507;-79
2022/04/28 07:06:47;;;;;;;34.37;20.17;;;13.80;99.90;;;;;;5066449;28;20451;-80
2022/04/28 07:09:14;;;;;;;28.93;18.67;;;13.90;99.90;;;;;;5075299;28;20526;-80
2022/04/28 07:11:40;;;;;;;28.47;19.17;;;14.00;99.90;;;;;;5074872;28;20483;-81
2022/04/28 07:14:08;;;;;;;30.47;19.80;;;14.00;99.90;;;;;;5056934;28;20457;-78
2022/04/28 07:16:35;;;;;;;28.17;19.83;;;14.10;99.90;;;;;;5032717;28;20465;-78
2022/04/28 07:19:03;;;;;;;24.00;18.00;;;14.30;99.90;;;;;;5032888;28;20479;-78
2022/04/28 07:21:30;;;;;;;33.27;19.03;;;14.50;99.90;;;;;;5072376;28;20478;-79
2022/04/28 07:23:57;;;;;;;26.00;19.60;;;14.70;99.90;;;;;;5071316;28;20942;-79
2022/04/28 07:26:23;;;;;;;29.23;19.60;;;14.80;99.90;;;;;;5066495;28;20448;-78
2022/04/28 07:28:50;;;;;;;30.63;19.93;;;14.90;99.90;;;;;;5064796;28;20865;-80
2022/04/28 07:31:18;;;;;;;28.20;19.67;;;15.00;99.90;;;;;;5063425;28;20840;-80
2022/04/28 07:33:45;;;;;;;26.77;18.83;;;14.90;99.90;;;;;;5064528;28;20501;-79
2022/04/28 07:36:13;;;;;;;29.60;19.00;;;15.10;99.90;;;;;;5056118;28;20456;-78
2022/04/28 07:38:39;;;;;;;28.33;19.57;;;15.20;99.90;;;;;;5056952;28;20483;-79
2022/04/28 07:41:06;;;;;;;22.37;18.10;;;15.40;99.90;;;;;;5063878;28;20993;-79
2022/04/28 07:43:33;;;;;;;27.33;19.77;;;15.60;99.90;;;;;;5066419;28;20451;-80
2022/04/28 07:46:00;;;;;;;25.40;17.43;;;15.80;99.90;;;;;;5061059;28;20459;-80
2022/04/28 07:48:28;;;;;;;22.93;18.10;;;15.90;99.90;;;;;;5067781;28;20455;-80
2022/04/28 07:50:55;;;;;;;25.80;17.97;;;15.90;99.90;;;;;;5077024;28;20924;-79
2022/04/28 07:53:22;;;;;;;29.47;20.17;;;15.90;99.90;;;;;;5072657;28;20474;-80
2022/04/28 07:56:10;;;;;;;24.70;18.13;;;16.00;99.90;;;;;;5058813;28;20457;-80
2022/04/28 07:58:35;;;;;;;23.73;17.77;;;16.20;99.90;;;;;;5060436;28;20842;-80
2022/04/28 08:01:02;;;;;;;26.10;18.20;;;16.30;99.90;;;;;;5056303;28;20475;-80
2022/04/28 08:03:30;;;;;;;28.87;17.67;;;16.40;99.90;;;;;;5056464;28;20460;-81
2022/04/28 08:05:57;;;;;;;29.63;18.57;;;16.60;99.90;;;;;;5055838;28;20475;-80
2022/04/28 08:08:24;;;;;;;29.03;18.93;;;16.90;99.90;;;;;;5062410;28;20451;-81
2022/04/28 08:10:51;;;;;;;23.67;18.47;;;16.90;99.90;;;;;;5076030;28;20478;-80
2022/04/28 08:13:18;;;;;;;25.03;18.63;;;17.10;99.90;;;;;;5071420;28;20479;-81
2022/04/28 08:15:45;;;;;;;23.67;18.03;;;17.40;99.90;;;;;;5056279;28;20452;-80
2022/04/28 08:18:11;;;;;;;24.47;17.73;;;17.60;99.90;;;;;;5056315;28;20867;-80
2022/04/28 08:20:41;;;;;;;27.17;18.50;;;17.60;99.90;;;;;;5067705;28;20446;-80
2022/04/28 08:23:08;;;;;;;22.50;16.80;;;17.80;99.90;;;;;;5076012;28;20447;-80
2022/04/28 08:25:35;;;;;;;21.73;17.50;;;17.90;99.90;;;;;;5076782;28;20422;-79
2022/04/28 08:28:02;;;;;;;25.13;18.17;;;18.00;99.90;;;;;;5070318;28;20518;-80
2022/04/28 08:30:29;;;;;;;21.73;17.50;;;18.20;99.90;;;;;;5057029;28;20461;-80
2022/04/28 08:32:55;;;;;;;24.57;16.70;;;18.30;99.90;;;;;;5064023;28;20440;-80
2022/04/28 08:35:22;;;;;;;23.10;16.80;;;18.20;99.90;;;;;;5076857;28;20447;-80
2022/04/28 08:37:50;;;;;;;22.60;17.23;;;18.30;99.90;;;;;;5077850;28;20492;-80
2022/04/28 08:40:18;;;;;;;23.07;17.13;;;18.40;99.90;;;;;;5076640;28;20438;-80
2022/04/28 08:42:48;;;;;;;25.33;16.63;;;18.50;99.90;;;;;;5075727;28;21030;-81
2022/04/28 08:45:18;;;;;;;23.93;17.20;;;18.60;99.90;;;;;;5055771;28;20431;-81
2022/04/28 08:47:47;;;;;;;19.83;15.93;;;18.70;99.90;;;;;;5056313;28;20493;-80
2022/04/28 08:50:15;;;;;;;25.83;16.03;;;18.80;99.90;;;;;;5055955;28;20888;-80
2022/04/28 08:52:41;;;;;;;19.70;15.13;;;19.10;99.90;;;;;;5054964;28;20453;-80
2022/04/28 08:55:10;;;;;;;20.40;15.50;;;19.10;99.90;;;;;;5054949;28;20506;-80
2022/04/28 08:57:37;;;;;;;22.67;15.70;;;19.20;99.90;;;;;;5055291;28;20488;-80
2022/04/28 09:00:05;;;;;;;25.37;14.93;;;19.30;99.90;;;;;;5055783;28;20533;-80
2022/04/28 09:02:33;;;;;;;18.70;14.40;;;19.40;99.90;;;;;;5054810;28;20480;-80
2022/04/28 09:05:01;;;;;;;20.30;15.27;;;19.50;99.90;;;;;;5054482;28;20535;-80
2022/04/28 09:07:34;;;;;;;20.07;14.73;;;19.60;99.90;;;;;;5056154;28;20517;-79
2022/04/28 09:10:01;;;;;;;20.30;12.57;;;19.90;99.90;;;;;;5055309;28;20492;-80
2022/04/28 09:12:29;;;;;;;16.80;12.53;;;20.10;99.90;;;;;;5054830;28;20518;-80
2022/04/28 09:15:10;;;;;;;14.30;12.20;;;20.20;99.90;;;;;;5054085;28;20444;-80
2022/04/28 09:17:41;;;;;;;19.47;12.97;;;20.30;99.90;;;;;;5054932;28;20480;-80
2022/04/28 09:20:13;;;;;;;14.60;11.60;;;20.30;99.90;;;;;;5064952;28;20502;-81
2022/04/28 09:22:43;;;;;;;17.80;13.80;;;20.40;99.90;;;;;;5074346;28;20905;-80
2022/04/28 09:25:10;;;;;;;14.53;11.93;;;20.50;99.90;;;;;;5074941;28;20484;-79
2022/04/28 09:27:40;;;;;;;16.10;12.70;;;20.60;99.90;;;;;;5072241;28;20448;-79
2022/04/28 09:30:08;;;;;;;14.73;11.93;;;20.70;99.90;;;;;;5068395;28;20480;-81
2022/04/28 09:32:35;;;;;;;16.13;11.87;;;20.70;99.90;;;;;;5060062;28;20451;-80
2022/04/28 09:35:09;;;;;;;14.97;11.37;;;20.60;99.90;;;;;;5074519;28;20456;-81
2022/04/28 09:37:37;;;;;;;14.20;11.70;;;20.80;99.90;;;;;;5075548;28;20484;-81
2022/04/28 09:42:52;;;;;;;15.83;12.07;;;20.60;99.90;;;;;;5075721;28;20846;-80
2022/04/28 09:45:22;;;;;;;11.20;10.10;;;20.80;99.90;;;;;;5061348;28;20448;-80
2022/04/28 09:47:58;;;;;;;13.53;11.60;;;21.10;99.90;;;;;;5059154;28;21001;-80
2022/04/28 09:50:25;;;;;;;18.23;11.03;;;21.40;99.90;;;;;;5074429;28;20479;-81
2022/04/28 09:52:55;;;;;;;14.97;11.27;;;21.70;99.90;;;;;;5069409;28;20454;-81
2022/04/28 09:55:24;;;;;;;13.47;10.40;;;22.00;99.90;;;;;;5076608;28;20505;-80
2022/04/28 09:57:52;;;;;;;10.80;9.47;;;22.10;99.90;;;;;;5076170;28;20519;-81
2022/04/28 10:00:20;;;;;;;17.90;10.63;;;22.20;99.90;;;;;;5076118;28;20874;-81
2022/04/28 10:02:47;;;;;;;12.50;9.50;;;22.40;99.90;;;;;;5056371;28;20457;-81
2022/04/28 10:05:15;;;;;;;11.93;8.63;;;22.50;99.90;;;;;;5055119;28;20461;-81
2022/04/28 10:07:43;;;;;;;14.43;8.03;;;22.50;99.90;;;;;;5055477;28;20535;-81
2022/04/28 10:10:10;;;;;;;10.17;8.30;;;22.40;99.90;;;;;;5055756;28;20469;-82
2022/04/28 10:12:39;;;;;;;11.70;8.83;;;22.40;99.90;;;;;;5071109;28;20444;-81
2022/04/28 10:15:11;;;;;;;8.30;6.90;;;22.40;99.90;;;;;;5079382;28;20447;-81
2022/04/28 10:17:42;;;;;;;12.97;8.60;;;22.60;99.90;;;;;;5060763;28;20549;-81
2022/04/28 10:20:13;;;;;;;6.80;5.53;;;22.70;99.90;;;;;;5068356;28;20463;-80
2022/04/28 10:22:41;;;;;;;5.83;5.33;;;22.80;99.90;;;;;;5079400;28;20424;-81
2022/04/28 10:33:45;;;;;;;8.70;6.13;;;22.80;99.90;;;;;;5070677;28;20888;-81
2022/04/28 10:36:16;;;;;;;6.43;5.80;;;22.90;99.90;;;;;;5077274;28;20478;-81
2022/04/28 10:39:05;;;;;;;7.03;5.23;;;23.00;99.90;;;;;;5073438;28;20472;-78
2022/04/28 10:41:32;;;;;;;5.47;4.87;;;23.40;99.80;;;;;;5082886;28;20471;-79
2022/04/28 10:44:00;;;;;;;9.60;4.47;;;22.80;98.60;;;;;;5080754;28;20878;-80
2022/04/28 10:46:32;;;;;;;4.50;4.10;;;22.60;99.90;;;;;;5062755;28;20449;-79
2022/04/28 10:49:01;;;;;;;7.33;5.50;;;22.70;99.90;;;;;;5061598;28;20440;-80
2022/04/28 10:51:31;;;;;;;4.10;3.80;;;22.90;98.90;;;;;;5062512;28;20480;-79
2022/04/28 10:54:07;;;;;;;5.90;5.40;;;22.90;97.00;;;;;;5070125;28;20448;-78
2022/04/28 10:56:54;;;;;;;6.43;4.60;;;22.80;99.10;;;;;;5079087;28;20447;-79
2022/04/28 10:59:34;;;;;;;10.90;4.53;;;23.00;99.00;;;;;;5066188;28;20484;-79
2022/04/28 11:02:40;;;;;;;4.90;4.10;;;22.70;97.90;;;;;;5061184;28;20448;-79
2022/04/28 11:05:41;;;;;;;7.30;5.60;;;22.40;97.30;;;;;;5057273;28;20505;-78
2022/04/28 11:08:26;;;;;;;7.67;6.30;;;22.00;98.10;;;;;;5065092;28;20763;-78
2022/04/28 11:11:09;;;;;;;7.47;6.67;;;21.50;99.60;;;;;;5059455;28;20554;-79
2022/04/28 11:13:38;;;;;;;9.50;7.50;;;21.20;99.90;;;;;;5059529;28;20890;-78
2022/04/28 11:16:05;;;;;;;7.33;6.07;;;21.20;99.90;;;;;;5059393;28;20441;-78
2022/04/28 11:18:34;;;;;;;12.83;8.70;;;21.30;99.90;;;;;;5057610;28;20480;-81
2022/04/28 11:21:03;;;;;;;8.33;7.30;;;21.50;99.90;;;;;;5061285;28;20460;-80
2022/04/28 11:23:37;;;;;;;10.90;7.87;;;22.00;99.90;;;;;;5069537;28;20455;-80
2022/04/28 11:26:04;;;;;;;9.47;6.90;;;22.10;99.90;;;;;;5065244;28;20448;-79
2022/04/28 11:28:32;;;;;;;8.73;6.23;;;22.20;99.80;;;;;;5049777;28;20506;-80
2022/04/28 11:30:59;;;;;;;12.30;7.37;;;22.30;98.10;;;;;;5056250;28;20476;-80
2022/04/28 11:33:26;;;;;;;11.13;7.10;;;22.00;97.80;;;;;;5067386;28;20866;-80
2022/04/28 11:35:54;;;;;;;8.00;6.90;;;21.80;98.50;;;;;;5068752;28;20492;-78
2022/04/28 11:38:26;;;;;;;9.13;7.10;;;21.70;98.20;;;;;;5059329;28;20508;-78
2022/04/28 11:41:04;;;;;;;11.33;6.80;;;21.90;97.80;;;;;;5059568;28;20510;-81
2022/04/28 11:43:34;;;;;;;6.90;6.20;;;21.80;97.30;;;;;;5062022;28;20448;-80
2022/04/28 11:46:02;;;;;;;7.80;7.00;;;22.30;98.30;;;;;;5058989;28;21056;-80
2022/04/28 11:48:29;;;;;;;8.80;6.10;;;23.10;99.30;;;;;;5066907;28;20497;-80
2022/04/28 11:51:03;;;;;;;7.13;4.50;;;23.50;98.20;;;;;;5078468;28;20817;-80
2022/04/28 11:53:41;;;;;;;7.90;5.87;;;23.90;96.40;;;;;;5079971;28;20463;-79
2022/04/28 11:56:17;;;;;;;6.20;5.37;;;24.20;95.20;;;;;;5078561;28;20496;-79
2022/04/28 11:58:47;;;;;;;7.17;5.93;;;24.30;95.70;;;;;;5079977;28;20478;-80
2022/04/28 12:01:14;;;;;;;6.77;6.17;;;24.00;96.00;;;;;;5078832;28;20479;-78
2022/04/28 12:03:51;;;;;;;8.00;6.23;;;23.70;94.40;;;;;;5076300;28;20444;-82
2022/04/28 12:06:20;;;;;;;5.63;5.10;;;23.50;93.80;;;;;;5064354;28;20467;-81
2022/04/28 12:08:55;;;;;;;5.77;5.17;;;23.00;93.80;;;;;;5055538;28;20449;-79
2022/04/28 12:14:26;;;;;;;5.00;4.57;;;23.40;95.90;;;;;;5059119;28;20547;-79
2022/04/28 12:19:56;;;;;;;6.93;4.80;;;24.20;94.70;;;;;;5065117;28;21018;-79
2022/04/28 12:22:30;;;;;;;4.10;3.63;;;24.50;91.70;;;;;;5062928;28;20456;-80
2022/04/28 12:25:03;;;;;;;10.37;5.03;;;24.60;87.90;;;;;;5061322;28;20448;-79
2022/04/28 12:27:38;;;;;;;5.10;4.60;;;24.40;87.60;;;;;;5073744;28;20458;-80
2022/04/28 12:30:09;;;;;;;4.93;4.53;;;23.90;88.70;;;;;;5082600;28;20929;-80
2022/04/28 12:32:42;;;;;;;5.73;4.00;;;23.50;90.00;;;;;;5078224;28;20463;-79
2022/04/28 12:35:09;;;;;;;4.27;3.90;;;23.50;90.50;;;;;;5062632;28;20475;-80
2022/04/28 12:37:39;;;;;;;8.00;3.97;;;23.70;89.10;;;;;;5059313;28;20459;-80
2022/04/28 12:40:07;;;;;;;6.73;4.60;;;24.00;90.70;;;;;;5077894;28;21018;-81
2022/04/28 12:42:45;;;;;;;4.83;3.87;;;24.30;87.60;;;;;;5078665;28;20475;-81
2022/04/28 12:45:12;;;;;;;5.83;4.20;;;24.80;86.90;;;;;;5080708;28;21140;-80
2022/04/28 12:47:40;;;;;;;5.30;3.93;;;24.70;85.70;;;;;;5080583;28;20470;-79
2022/04/28 12:50:21;;;;;;;8.53;4.90;;;24.50;87.00;;;;;;5082330;28;20705;-79
2022/04/28 12:52:49;;;;;;;9.30;4.60;;;24.00;86.30;;;;;;5064225;28;20456;-79
2022/04/28 12:55:18;;;;;;;5.13;4.60;;;23.60;86.30;;;;;;5061800;28;20448;-80
2022/04/28 12:57:45;;;;;;;6.27;4.87;;;23.30;82.60;;;;;;5059173;28;20452;-80
2022/04/28 13:00:14;;;;;;;7.50;4.57;;;23.40;85.70;;;;;;5059356;28;20492;-80
2022/04/28 13:02:47;;;;;;;8.37;4.07;;;23.80;87.00;;;;;;5059201;28;20515;-80
2022/04/28 13:05:15;;;;;;;6.40;4.17;;;24.00;82.80;;;;;;5063131;28;20448;-81
2022/04/28 13:07:43;;;;;;;3.93;3.53;;;24.00;82.00;;;;;;5067149;28;20880;-79
2022/04/28 13:10:15;;;;;;;6.97;4.00;;;23.80;82.80;;;;;;5064909;28;20483;-79
2022/04/28 13:12:43;;;;;;;6.50;4.17;;;23.60;81.50;;;;;;5063686;28;20474;-81
2022/04/28 13:15:11;;;;;;;6.70;4.10;;;23.70;86.60;;;;;;5062892;28;20448;-80